Terminal Aerodrome Forecast
Issued by NWS

Current Version | Previous Version | Text Only | Print | Product List | Glossary On
Versions: 1 2 3 4 5 6 7 8 9 10 11 12 13 14 15 16 17 18 19 20 21
000 FTUS41 KOKX 211100 TAFHPN TAF KHPN 211132Z 2112/2212 VRB02KT P6SM FEW250 FM211500 14005KT P6SM FEW250 FM211800 17007KT P6SM FEW250 FM220000 19003KT P6SM SCT250 AMD NOT SKED=

USA.gov is the U.S. government's official web portal to all federal, state and local government web resources and services.